Time;durP1;ratioP1;P1;durP2;ratioP2;P2;SDS_P1;SDS_P2;PMS_P1;PMS_P2;Temp;Humidity;BMP_temperature;BMP_pressure;BME280_temperature;BME280_humidity;BME280_pressure;Samples;Min_cycle;Max_cycle;Signal;HPM_P1;HPM_P2
2022/07/03 00:01:26;;;;;;;0.98;0.90;;;;;;;17.31;79.02;99140.56;5109295;28;20039;-77
2022/07/03 00:03:53;;;;;;;1.67;1.13;;;;;;;17.34;79.26;99149.19;5106428;28;20066;-77
2022/07/03 00:06:19;;;;;;;2.03;0.93;;;;;;;17.17;79.05;99129.72;5105060;28;20444;-77
2022/07/03 00:08:48;;;;;;;1.17;1.08;;;;;;;17.20;80.01;99136.66;5107944;28;20043;-76
2022/07/03 00:11:16;;;;;;;6.30;1.38;;;;;;;16.98;80.53;99122.53;5109006;28;20059;-77
2022/07/03 00:13:43;;;;;;;1.98;1.20;;;;;;;17.03;80.77;99141.09;5109383;28;20126;-77
2022/07/03 00:16:10;;;;;;;2.03;1.05;;;;;;;16.87;79.64;99115.91;5107652;28;20067;-77
2022/07/03 00:18:36;;;;;;;2.45;1.15;;;;;;;16.92;80.19;99116.06;5109898;28;20384;-77
2022/07/03 00:21:06;;;;;;;1.35;1.08;;;;;;;17.12;79.69;99143.31;5109894;28;20052;-77
2022/07/03 00:23:41;;;;;;;3.13;0.98;;;;;;;17.08;81.35;99139.34;5108528;28;20047;-77
2022/07/03 00:26:11;;;;;;;6.43;1.05;;;;;;;17.05;80.72;99136.22;5106506;28;20434;-76
2022/07/03 00:28:38;;;;;;;5.80;1.00;;;;;;;17.11;81.04;99157.28;5091458;28;20044;-76
2022/07/03 00:31:05;;;;;;;3.10;1.40;;;;;;;16.90;81.40;99126.44;5088162;28;20140;-77
2022/07/03 00:33:35;;;;;;;3.53;1.17;;;;;;;16.99;81.72;99141.53;5105343;28;20047;-77
2022/07/03 00:36:02;;;;;;;;;;;;;;;16.96;83.79;99143.91;5096777;27;20109;-77
2022/07/03 00:38:29;;;;;;;2.05;1.05;;;;;;;16.98;80.35;99133.53;5099102;28;19978;-77
2022/07/03 00:40:56;;;;;;;1.48;0.98;;;;;;;16.89;80.18;99116.53;5109117;28;20043;-77
2022/07/03 00:43:26;;;;;;;6.35;2.25;;;;;;;16.98;79.37;99126.16;5104462;28;20047;-76
2022/07/03 00:45:54;;;;;;;1.70;1.00;;;;;;;17.03;78.54;99121.88;5108205;28;20056;-77
2022/07/03 00:48:21;;;;;;;1.55;0.95;;;;;;;17.19;78.11;99142.41;5106718;28;20517;-77
2022/07/03 00:50:49;;;;;;;1.52;1.02;;;;;;;17.05;78.70;99122.47;5096692;28;20058;-77
2022/07/03 00:53:23;;;;;;;2.03;1.20;;;;;;;17.05;78.30;99117.00;5102022;28;20056;-77
2022/07/03 00:55:53;;;;;;;4.32;1.10;;;;;;;17.14;76.82;99137.59;5107101;28;20502;-77
2022/07/03 00:58:20;;;;;;;1.10;1.00;;;;;;;17.14;76.81;99115.63;5105762;28;20048;-77
2022/07/03 01:00:51;;;;;;;0.68;0.68;;;;;;;17.31;76.19;99141.41;5107167;28;20047;-76
2022/07/03 01:03:19;;;;;;;4.25;1.00;;;;;;;17.25;75.90;99125.84;5106110;28;20039;-77
2022/07/03 01:05:50;;;;;;;1.20;1.10;;;;;;;17.35;76.32;99139.03;5103478;28;20048;-77
2022/07/03 01:08:22;;;;;;;1.10;0.90;;;;;;;17.46;76.05;99149.28;5088365;28;20058;-77
2022/07/03 01:10:59;;;;;;;1.85;0.93;;;;;;;17.42;76.03;99144.44;5088500;28;20398;-77
2022/07/03 01:13:38;;;;;;;0.93;0.88;;;;;;;17.45;75.36;99144.84;5093821;28;20036;-77
2022/07/03 01:16:08;;;;;;;2.38;0.90;;;;;;;17.52;76.12;99162.09;5104782;28;20050;-77
2022/07/03 01:18:45;;;;;;;1.42;1.02;;;;;;;17.53;75.79;99154.66;5098477;28;20055;-77
2022/07/03 01:21:19;;;;;;;1.15;0.90;;;;;;;17.55;75.03;99148.94;5107639;28;20053;-77
2022/07/03 01:24:22;;;;;;;3.83;1.20;;;;;;;17.51;75.36;99148.59;5104979;28;20091;-77
2022/07/03 01:26:56;;;;;;;0.88;0.88;;;;;;;17.49;75.62;99157.06;5098653;28;20052;-77
2022/07/03 01:29:30;;;;;;;2.35;1.08;;;;;;;17.47;76.19;99150.09;5100430;28;20101;-77
2022/07/03 01:31:58;;;;;;;3.40;1.23;;;;;;;17.41;77.98;99140.84;5096573;28;20039;-77
2022/07/03 01:34:29;;;;;;;1.10;1.00;;;;;;;17.32;77.00;99123.00;5108269;28;20388;-77
2022/07/03 01:37:01;;;;;;;5.78;1.20;;;;;;;17.34;77.26;99127.22;5105480;28;20055;-77
2022/07/03 01:39:28;;;;;;;2.05;1.00;;;;;;;16.98;78.93;99098.69;5100639;28;20048;-77
2022/07/03 01:42:00;;;;;;;1.08;0.93;;;;;;;17.14;78.43;99130.19;5094166;28;20040;-77
2022/07/03 01:44:28;;;;;;;2.25;1.05;;;;;;;17.15;78.57;99129.13;5106752;28;20051;-77
2022/07/03 01:46:57;;;;;;;1.80;1.00;;;;;;;16.99;79.92;99116.00;5106457;28;20054;-77
2022/07/03 01:49:27;;;;;;;1.10;1.00;;;;;;;16.96;80.74;99125.50;5106480;28;20055;-77
2022/07/03 01:51:55;;;;;;;2.88;1.10;;;;;;;16.79;81.20;99107.94;5103129;28;20414;-77
2022/07/03 01:54:25;;;;;;;2.13;0.90;;;;;;;16.90;81.61;99118.19;5090919;28;20067;-77
2022/07/03 01:56:53;;;;;;;1.20;1.10;;;;;;;16.87;82.83;99124.13;5097119;28;20044;-77
2022/07/03 01:59:21;;;;;;;3.38;1.75;;;;;;;16.91;81.38;99133.59;5100307;28;20058;-77
2022/07/03 02:01:53;;;;;;;3.42;1.27;;;;;;;16.76;82.71;99108.41;5107513;28;20036;-77
2022/07/03 02:04:24;;;;;;;1.00;1.00;;;;;;;16.61;83.85;99111.50;5111949;27;20103;-77
2022/07/03 02:07:02;;;;;;;2.47;1.33;;;;;;;16.66;84.39;99138.25;5102703;28;20044;-77
2022/07/03 02:09:41;;;;;;;1.15;0.90;;;;;;;16.45;86.42;99137.59;5092106;28;20113;-77
2022/07/03 02:12:12;;;;;;;1.63;1.10;;;;;;;16.36;88.21;99138.94;5090690;28;20060;-77
2022/07/03 02:14:45;;;;;;;3.70;1.38;;;;;;;16.39;88.95;99133.00;5092991;28;20074;-77
2022/07/03 02:17:17;;;;;;;4.65;1.30;;;;;;;16.19;90.75;99139.47;5102680;28;20055;-77
2022/07/03 02:19:53;;;;;;;3.28;1.15;;;;;;;16.12;91.69;99135.94;5112095;28;20051;-77
2022/07/03 02:22:21;;;;;;;2.38;1.05;;;;;;;16.05;92.27;99133.25;5110028;28;20047;-77
2022/07/03 02:24:48;;;;;;;3.03;1.40;;;;;;;15.95;92.56;99127.41;5109607;28;20070;-77
2022/07/03 02:27:17;;;;;;;2.03;1.23;;;;;;;15.83;92.88;99110.00;5106620;28;20478;-77
2022/07/03 02:29:49;;;;;;;2.15;1.17;;;;;;;15.82;93.34;99124.75;5111409;28;20806;-77
2022/07/03 02:32:21;;;;;;;1.45;1.00;;;;;;;15.81;92.61;99114.88;5093806;28;20490;-77
2022/07/03 02:34:55;;;;;;;4.10;1.20;;;;;;;15.93;92.56;99132.28;5110906;28;20065;-77
2022/07/03 02:37:24;;;;;;;2.88;1.30;;;;;;;15.92;92.67;99131.44;5102714;27;20044;-77
2022/07/03 02:39:53;;;;;;;1.73;1.00;;;;;;;15.87;94.24;99139.47;5100513;28;20101;-78
2022/07/03 02:42:29;;;;;;;7.20;1.17;;;;;;;15.70;95.56;99124.56;5110019;28;20074;-77
2022/07/03 02:45:01;;;;;;;1.23;1.13;;;;;;;15.70;95.58;99125.44;5105480;28;20039;-77
2022/07/03 02:47:36;;;;;;;2.72;1.10;;;;;;;15.49;97.27;99132.06;5094280;28;20457;-77
2022/07/03 02:50:09;;;;;;;3.50;1.30;;;;;;;15.47;97.67;99125.94;5097928;28;20062;-77
2022/07/03 02:52:45;;;;;;;1.20;1.10;;;;;;;15.26;99.01;99107.91;5112808;28;20456;-77
2022/07/03 02:55:27;;;;;;;2.97;1.27;;;;;;;15.33;98.78;99119.69;5113466;28;20056;-77
2022/07/03 02:58:23;;;;;;;2.58;1.75;;;;;;;15.39;98.65;99129.78;5113871;28;20051;-77
2022/07/03 03:00:58;;;;;;;4.43;1.50;;;;;;;15.50;98.46;99138.38;5107818;28;20059;-77
2022/07/03 03:03:28;;;;;;;4.35;1.20;;;;;;;15.30;100.00;99139.31;5112720;28;20047;-77
2022/07/03 03:05:56;;;;;;;3.10;1.10;;;;;;;15.14;100.00;99113.22;5113433;28;20070;-77
2022/07/03 03:08:34;;;;;;;3.70;1.10;;;;;;;15.20;99.98;99133.44;5112693;28;20043;-77
2022/07/03 03:11:08;;;;;;;1.63;1.27;;;;;;;15.10;99.94;99109.25;5113455;28;20398;-77
2022/07/03 03:13:35;;;;;;;7.00;1.30;;;;;;;15.23;99.11;99146.69;5106206;28;20040;-77
2022/07/03 03:16:07;;;;;;;3.05;1.20;;;;;;;15.22;100.00;99148.59;5104619;28;20039;-77
2022/07/03 03:18:37;;;;;;;1.30;1.20;;;;;;;15.16;99.84;99135.78;5113163;28;20054;-77
2022/07/03 03:21:05;;;;;;;1.95;1.30;;;;;;;15.27;98.79;99137.00;5112965;28;20052;-77
2022/07/03 03:23:38;;;;;;;7.85;1.35;;;;;;;15.12;100.00;99140.00;5112389;28;20044;-77
2022/07/03 03:26:05;;;;;;;6.15;1.50;;;;;;;15.51;96.84;99149.13;5113001;28;20498;-77
2022/07/03 03:28:31;;;;;;;6.15;1.20;;;;;;;15.28;99.17;99140.56;5110195;28;20039;-77
2022/07/03 03:30:58;;;;;;;1.17;1.08;;;;;;;15.31;100.00;99154.69;5105805;28;20043;-77
2022/07/03 03:33:27;;;;;;;2.70;1.45;;;;;;;15.33;100.00;99170.91;5112209;28;20048;-77
2022/07/03 03:35:53;;;;;;;2.17;1.17;;;;;;;15.33;100.00;99163.53;5098958;28;20048;-77
2022/07/03 03:38:20;;;;;;;7.15;1.30;;;;;;;15.29;100.00;99166.91;5092468;28;20075;-77
2022/07/03 03:40:47;;;;;;;1.58;1.10;;;;;;;15.16;100.00;99168.63;5092112;28;20052;-77
2022/07/03 03:43:13;;;;;;;3.33;1.05;;;;;;;15.12;100.00;99150.13;5106326;28;20073;-77
2022/07/03 03:45:40;;;;;;;1.30;1.20;;;;;;;15.22;100.00;99173.25;5111545;28;20517;-77
2022/07/03 03:48:07;;;;;;;1.48;1.15;;;;;;;15.17;100.00;99178.50;5100049;28;20043;-77
2022/07/03 03:50:34;;;;;;;2.58;1.30;;;;;;;15.31;100.00;99175.75;5110706;28;20414;-77
2022/07/03 03:53:01;;;;;;;3.10;1.27;;;;;;;15.32;100.00;99172.78;5095313;28;20517;-77
2022/07/03 03:55:28;;;;;;;4.25;1.20;;;;;;;15.08;100.00;99160.63;5092313;28;20077;-77
2022/07/03 03:57:54;;;;;;;3.05;1.38;;;;;;;15.10;100.00;99174.97;5111903;27;20046;-77
2022/07/03 04:00:21;;;;;;;1.23;1.05;;;;;;;15.32;100.00;99177.44;5112664;28;20489;-77
2022/07/03 04:02:47;;;;;;;2.25;1.33;;;;;;;15.30;100.00;99182.28;5111756;28;20410;-77
2022/07/03 04:05:14;;;;;;;1.75;1.00;;;;;;;15.34;100.00;99178.03;5104663;28;20051;-77
2022/07/03 04:07:41;;;;;;;2.80;1.33;;;;;;;15.03;100.00;99155.81;5112046;28;20047;-77
2022/07/03 04:10:08;;;;;;;7.57;1.85;;;;;;;15.20;100.00;99178.13;5109669;28;20534;-77
2022/07/03 04:12:35;;;;;;;2.58;1.17;;;;;;;15.11;100.00;99153.91;5110971;28;20387;-77
2022/07/03 04:15:01;;;;;;;1.48;1.27;;;;;;;15.12;100.00;99167.38;5111284;28;20495;-77
2022/07/03 04:17:28;;;;;;;1.67;1.23;;;;;;;15.25;100.00;99184.81;5112183;28;20058;-77
2022/07/03 04:19:54;;;;;;;3.85;1.13;;;;;;;15.14;100.00;99164.44;5110202;28;20442;-77
2022/07/03 04:22:21;;;;;;;8.68;1.65;;;;;;;15.35;100.00;99177.84;5109976;28;20070;-77
2022/07/03 04:24:49;;;;;;;2.78;1.27;;;;;;;15.33;100.00;99182.69;5109367;28;20054;-77
2022/07/03 04:27:15;;;;;;;1.77;1.08;;;;;;;15.27;100.00;99185.47;5111502;28;20054;-77
2022/07/03 04:29:42;;;;;;;2.08;1.35;;;;;;;15.29;100.00;99199.78;5112070;28;20443;-77
2022/07/03 04:32:09;;;;;;;6.13;1.60;;;;;;;15.42;100.00;99190.69;5092846;28;20145;-77
2022/07/03 04:34:35;;;;;;;5.65;2.10;;;;;;;15.36;100.00;99173.22;5091360;28;20048;-77
2022/07/03 04:37:02;;;;;;;2.25;1.38;;;;;;;15.45;100.00;99190.25;5105312;28;20052;-77
2022/07/03 04:39:28;;;;;;;2.35;1.35;;;;;;;15.37;100.00;99161.19;5107709;28;20047;-77
2022/07/03 04:41:56;;;;;;;2.53;1.20;;;;;;;15.48;100.00;99178.88;5111123;28;20047;-77
2022/07/03 04:44:22;;;;;;;3.25;1.55;;;;;;;15.56;100.00;99195.88;5110898;28;20051;-77
2022/07/03 04:46:49;;;;;;;1.85;1.63;;;;;;;15.62;100.00;99185.13;5111594;28;20062;-77
2022/07/03 04:49:16;;;;;;;5.25;1.45;;;;;;;15.74;100.00;99203.41;5111539;28;20051;-77
2022/07/03 04:51:42;;;;;;;4.88;1.50;;;;;;;15.86;100.00;99205.50;5098407;28;20039;-77
2022/07/03 04:54:09;;;;;;;1.63;1.52;;;;;;;15.78;100.00;99189.28;5100942;28;20060;-78
2022/07/03 04:56:35;;;;;;;3.53;1.60;;;;;;;15.82;100.00;99205.09;5110148;28;20406;-78
2022/07/03 04:59:03;;;;;;;4.70;1.23;;;;;;;15.86;100.00;99194.53;5105916;28;20501;-78
2022/07/03 05:01:29;;;;;;;5.07;1.73;;;;;;;16.13;100.00;99184.25;5094161;28;20052;-78
2022/07/03 05:03:56;;;;;;;1.63;1.35;;;;;;;16.96;94.36;99183.19;5093040;28;20486;-77
2022/07/03 05:06:22;;;;;;;2.53;1.10;;;;;;;18.00;89.66;99198.91;5110980;28;20058;-78
2022/07/03 05:08:49;;;;;;;2.78;1.45;;;;;;;18.62;85.11;99172.16;5105527;28;20051;-77
2022/07/03 05:11:15;;;;;;;5.32;1.45;;;;;;;19.30;80.31;99201.09;5110678;28;20055;-77
2022/07/03 05:13:42;;;;;;;4.32;1.45;;;;;;;19.93;76.62;99193.03;5110234;28;20059;-77
2022/07/03 05:16:10;;;;;;;3.60;1.55;;;;;;;20.56;74.23;99204.97;5110434;28;20056;-77
2022/07/03 05:18:36;;;;;;;4.07;1.48;;;;;;;21.00;71.99;99204.34;5110401;28;20046;-77
2022/07/03 05:21:03;;;;;;;2.55;1.00;;;;;;;21.25;70.37;99194.78;5110815;28;20048;-77
2022/07/03 05:23:30;;;;;;;5.18;1.13;;;;;;;21.34;68.89;99184.94;5108037;28;20059;-77
2022/07/03 05:25:58;;;;;;;1.27;0.90;;;;;;;21.74;67.65;99198.50;5104536;28;20071;-77
2022/07/03 05:28:25;;;;;;;1.35;0.90;;;;;;;21.75;67.42;99188.28;5100086;28;20044;-76
2022/07/03 05:30:51;;;;;;;1.10;1.00;;;;;;;22.16;65.98;99207.28;5096787;28;20498;-76
2022/07/03 05:33:19;;;;;;;2.40;1.10;;;;;;;22.07;64.20;99182.84;5110163;28;20386;-76
2022/07/03 05:35:46;;;;;;;1.15;1.05;;;;;;;22.01;64.30;99197.72;5110693;28;20052;-76
2022/07/03 05:38:13;;;;;;;2.05;0.90;;;;;;;21.98;64.43;99191.84;5110981;28;20051;-76
2022/07/03 05:40:39;;;;;;;1.50;0.90;;;;;;;22.39;62.71;99190.38;5114706;28;20063;-77
2022/07/03 05:43:06;;;;;;;3.17;1.20;;;;;;;22.41;61.64;99201.22;5101378;28;20044;-76
2022/07/03 05:45:32;;;;;;;1.60;1.00;;;;;;;22.60;62.09;99198.91;5114646;28;20047;-77
2022/07/03 05:47:59;;;;;;;2.22;1.55;;;;;;;22.69;60.18;99202.00;5114406;27;20043;-76
2022/07/03 05:50:27;;;;;;;3.28;1.00;;;;;;;22.72;60.41;99199.56;5113053;28;20052;-76
2022/07/03 05:52:53;;;;;;;3.80;1.00;;;;;;;22.59;60.62;99197.22;5111870;28;20050;-76
2022/07/03 05:55:20;;;;;;;3.17;1.10;;;;;;;22.75;61.38;99207.34;5114698;28;20106;-77
2022/07/03 05:57:46;;;;;;;3.33;1.15;;;;;;;22.93;61.70;99203.31;5113372;28;20052;-76
2022/07/03 06:00:14;;;;;;;0.98;0.93;;;;;;;23.05;61.27;99188.44;5108325;28;20058;-77
2022/07/03 06:02:40;;;;;;;0.90;0.70;;;;;;;23.12;60.32;99183.53;5112988;28;20410;-77
2022/07/03 06:05:07;;;;;;;3.05;1.00;;;;;;;23.35;59.12;99204.47;5114355;28;20044;-77
2022/07/03 06:07:35;;;;;;;2.88;1.20;;;;;;;23.38;59.81;99198.41;5112504;28;20058;-77
2022/07/03 06:10:01;;;;;;;1.63;0.88;;;;;;;23.57;59.42;99209.03;5114032;28;20050;-77
2022/07/03 06:12:28;;;;;;;3.53;1.02;;;;;;;23.74;58.43;99176.38;5104434;28;20052;-77
2022/07/03 06:14:54;;;;;;;2.85;1.02;;;;;;;23.61;59.12;99199.06;5101016;28;20043;-77
2022/07/03 06:17:21;;;;;;;1.20;1.10;;;;;;;24.20;57.49;99204.28;5113792;28;20056;-77
2022/07/03 06:19:47;;;;;;;3.08;1.48;;;;;;;24.29;56.64;99195.44;5107662;28;20048;-77
2022/07/03 06:22:14;;;;;;;3.58;1.20;;;;;;;24.45;57.28;99207.41;5112503;28;20058;-77
2022/07/03 06:24:42;;;;;;;2.10;1.20;;;;;;;24.67;55.81;99201.63;5113662;28;20051;-77
2022/07/03 06:27:08;;;;;;;3.33;1.20;;;;;;;24.56;56.07;99193.25;5113924;28;20054;-77
2022/07/03 06:29:34;;;;;;;2.45;0.90;;;;;;;24.41;55.68;99209.91;5101015;28;20062;-77
2022/07/03 06:32:01;;;;;;;1.73;1.10;;;;;;;24.50;56.19;99199.09;5092313;28;20043;-78
2022/07/03 06:34:28;;;;;;;1.10;0.98;;;;;;;24.82;54.32;99184.13;5111762;28;20051;-77
2022/07/03 06:36:54;;;;;;;2.55;1.17;;;;;;;24.74;54.97;99169.66;5110191;28;20043;-77
2022/07/03 06:39:21;;;;;;;2.53;1.05;;;;;;;24.97;55.07;99186.88;5113602;28;20047;-76
2022/07/03 06:41:48;;;;;;;1.45;1.10;;;;;;;25.18;54.19;99204.38;5113586;28;20048;-76
2022/07/03 06:44:15;;;;;;;1.05;0.85;;;;;;;25.07;54.85;99191.59;5112332;27;20067;-78
2022/07/03 06:46:41;;;;;;;2.28;0.98;;;;;;;25.17;53.26;99190.75;5100647;28;20514;-77
2022/07/03 06:49:08;;;;;;;4.50;1.27;;;;;;;25.61;51.99;99204.88;5107648;28;20415;-78
2022/07/03 06:51:35;;;;;;;3.38;1.00;;;;;;;25.48;54.57;99182.38;5109094;28;20062;-78
2022/07/03 06:54:02;;;;;;;3.05;1.05;;;;;;;25.39;53.14;99213.53;5092165;28;20048;-77
2022/07/03 06:56:28;;;;;;;1.05;0.95;;;;;;;25.71;52.65;99184.50;5096572;28;20051;-78
2022/07/03 06:58:56;;;;;;;1.45;1.00;;;;;;;26.00;52.19;99189.44;5101260;28;20036;-77
2022/07/03 07:01:23;;;;;;;4.40;1.08;;;;;;;25.97;50.81;99184.41;5113234;28;20055;-78
2022/07/03 07:03:49;;;;;;;2.70;1.00;;;;;;;26.29;52.05;99209.03;5110746;28;20056;-77
2022/07/03 07:06:16;;;;;;;2.30;1.10;;;;;;;26.23;51.91;99178.72;5107187;28;20398;-77
2022/07/03 07:08:42;;;;;;;3.83;1.20;;;;;;;26.52;51.91;99194.69;5112163;28;20494;-76
2022/07/03 07:11:08;;;;;;;1.27;0.88;;;;;;;26.69;50.71;99209.06;5113241;28;20051;-77
2022/07/03 07:13:35;;;;;;;1.48;0.98;;;;;;;26.51;48.98;99213.34;5112184;28;20043;-77
2022/07/03 07:16:03;;;;;;;1.27;1.10;;;;;;;26.61;48.51;99213.28;5101568;28;20423;-77
2022/07/03 07:18:29;;;;;;;1.45;0.90;;;;;;;26.96;50.07;99213.31;5092551;28;20051;-77
2022/07/03 07:20:56;;;;;;;2.03;0.80;;;;;;;27.02;51.01;99212.97;5099263;28;20044;-77
2022/07/03 07:23:22;;;;;;;3.30;0.88;;;;;;;27.17;47.82;99209.22;5110928;28;20050;-77
2022/07/03 07:25:49;;;;;;;1.23;0.98;;;;;;;27.24;48.69;99208.88;5112197;28;20047;-77
2022/07/03 07:28:15;;;;;;;0.73;0.73;;;;;;;27.06;47.61;99218.81;5099811;28;20055;-77
2022/07/03 07:30:42;;;;;;;1.23;1.00;;;;;;;26.93;48.27;99209.13;5112828;28;20487;-77
2022/07/03 07:33:10;;;;;;;1.55;0.90;;;;;;;27.35;46.53;99218.81;5111163;27;20052;-77
2022/07/03 07:35:37;;;;;;;3.10;1.00;;;;;;;27.33;49.16;99218.28;5103033;27;20047;-77
2022/07/03 07:38:04;;;;;;;5.50;1.00;;;;;;;27.01;46.60;99211.31;5108511;28;20506;-77
2022/07/03 07:40:30;;;;;;;1.02;0.90;;;;;;;27.25;46.71;99215.25;5092140;28;20055;-77
2022/07/03 07:42:57;;;;;;;3.05;1.02;;;;;;;27.30;47.53;99201.28;5093515;28;20048;-77
2022/07/03 07:45:23;;;;;;;2.60;0.90;;;;;;;27.60;48.12;99207.69;5112609;28;20361;-77
2022/07/03 07:47:50;;;;;;;1.70;1.20;;;;;;;27.58;48.81;99212.72;5108915;28;20052;-77
2022/07/03 07:50:17;;;;;;;3.28;0.90;;;;;;;27.80;45.81;99214.97;5110507;28;20502;-77
2022/07/03 07:52:44;;;;;;;1.55;0.70;;;;;;;28.02;44.34;99220.88;5101644;28;20402;-77
2022/07/03 07:55:10;;;;;;;5.45;1.20;;;;;;;28.12;42.65;99219.91;5111291;28;20055;-77
2022/07/03 07:57:38;;;;;;;2.63;1.67;;;;;;;28.00;43.51;99216.72;5112420;28;20052;-77
2022/07/03 08:00:07;;;;;;;3.88;2.00;;;;;;;28.01;43.50;99218.38;5111497;28;20411;-77
2022/07/03 08:05:36;;;;;;;6.47;0.88;;;;;;;27.92;41.59;99203.38;5089602;28;20054;-77
2022/07/03 08:08:03;;;;;;;1.95;1.13;;;;;;;27.86;42.06;99211.00;5108738;28;20051;-77
2022/07/03 08:10:30;;;;;;;2.75;1.08;;;;;;;28.23;42.64;99206.63;5112143;28;20052;-77
2022/07/03 08:12:56;;;;;;;1.13;0.82;;;;;;;28.21;43.67;99198.56;5111233;28;20250;-77
2022/07/03 08:15:23;;;;;;;0.77;0.70;;;;;;;27.68;41.95;99205.06;5111702;28;20039;-77
2022/07/03 08:17:49;;;;;;;3.33;0.90;;;;;;;27.84;44.06;99202.09;5109958;28;20048;-77
2022/07/03 08:20:16;;;;;;;9.27;3.38;;;;;;;27.84;44.47;99188.13;5111566;28;20059;-77
2022/07/03 08:22:43;;;;;;;2.10;0.80;;;;;;;28.17;43.60;99200.28;5111565;28;20052;-77
2022/07/03 08:25:10;;;;;;;1.05;0.75;;;;;;;27.86;41.00;99203.44;5109642;28;20074;-78
2022/07/03 08:27:36;;;;;;;1.58;0.95;;;;;;;28.11;41.35;99201.50;5111602;28;20040;-78
2022/07/03 08:30:03;;;;;;;1.45;0.80;;;;;;;27.81;43.08;99183.97;5111558;28;20403;-77
2022/07/03 08:32:30;;;;;;;2.95;1.00;;;;;;;28.11;41.99;99198.69;5102835;28;20410;-77
2022/07/03 08:34:56;;;;;;;3.40;0.77;;;;;;;27.77;41.67;99207.19;5110604;28;20047;-79
2022/07/03 08:37:23;;;;;;;0.90;0.80;;;;;;;27.58;42.59;99204.34;5111790;28;20055;-78
2022/07/03 08:39:51;;;;;;;4.60;1.00;;;;;;;27.93;43.21;99205.88;5111354;28;20051;-77
2022/07/03 08:42:18;;;;;;;1.38;1.00;;;;;;;28.13;43.93;99185.25;5109420;28;20415;-77
2022/07/03 08:44:45;;;;;;;2.88;1.10;;;;;;;27.89;45.43;99180.50;5110544;28;20046;-77
2022/07/03 08:47:13;;;;;;;1.35;0.85;;;;;;;28.15;43.87;99193.31;5109289;28;20052;-77
2022/07/03 08:49:40;;;;;;;1.25;1.00;;;;;;;27.96;41.83;99184.88;5111049;28;20052;-78
2022/07/03 08:52:09;;;;;;;1.45;0.90;;;;;;;28.41;41.80;99185.41;5108348;28;20052;-77
2022/07/03 08:54:36;;;;;;;0.98;0.90;;;;;;;28.08;41.09;99174.16;5091547;28;20047;-78
2022/07/03 08:57:06;;;;;;;1.33;1.10;;;;;;;28.44;41.03;99170.81;5110915;28;20047;-78
2022/07/03 08:59:34;;;;;;;;;;;;;;;28.73;40.82;99184.63;5112212;28;20050;-77
2022/07/03 09:02:01;;;;;;;1.15;1.05;;;;;;;28.84;43.75;99182.50;5102033;28;19919;-77
2022/07/03 09:04:27;;;;;;;1.90;1.10;;;;;;;28.31;40.29;99175.19;5100033;28;20490;-77
2022/07/03 09:06:55;;;;;;;1.25;0.90;;;;;;;28.43;40.50;99169.97;5106855;28;20047;-77
2022/07/03 09:09:22;;;;;;;2.97;1.15;;;;;;;28.55;40.34;99182.66;5108873;28;20143;-78
2022/07/03 09:11:48;;;;;;;1.17;0.82;;;;;;;28.85;39.69;99175.75;5108411;28;20044;-78
2022/07/03 09:14:16;;;;;;;1.33;0.90;;;;;;;28.01;40.89;99162.50;5106650;28;20432;-78
2022/07/03 09:16:43;;;;;;;1.63;0.95;;;;;;;28.20;40.16;99188.50;5108312;28;20044;-78
2022/07/03 09:19:10;;;;;;;0.98;0.80;;;;;;;28.15;39.76;99157.00;5107962;28;20052;-77
2022/07/03 09:21:38;;;;;;;2.47;1.00;;;;;;;28.41;41.05;99157.44;5105474;28;20494;-78
2022/07/03 09:24:06;;;;;;;3.00;0.77;;;;;;;28.94;39.78;99179.50;5107627;28;20074;-78
2022/07/03 09:26:33;;;;;;;0.95;0.82;;;;;;;28.91;41.59;99152.16;5108894;28;20395;-77
2022/07/03 09:29:00;;;;;;;4.43;1.17;;;;;;;28.60;39.37;99166.69;5108949;28;20056;-78
2022/07/03 09:31:29;;;;;;;1.55;1.17;;;;;;;28.73;40.30;99167.03;5106504;28;20047;-77
2022/07/03 09:33:58;;;;;;;2.78;1.58;;;;;;;28.36;40.63;99182.66;5107635;28;20051;-78
2022/07/03 09:36:39;;;;;;;1.73;0.68;;;;;;;28.65;39.96;99179.75;5099947;28;20134;-78
2022/07/03 09:39:14;;;;;;;1.25;0.80;;;;;;;28.52;42.20;99146.94;5108676;28;20116;-78
2022/07/03 09:41:52;;;;;;;1.67;0.88;;;;;;;28.80;39.64;99163.81;5109136;28;20051;-77
2022/07/03 09:44:33;;;;;;;0.80;0.75;;;;;;;28.96;38.56;99171.63;5107507;28;20088;-78
2022/07/03 09:47:12;;;;;;;1.33;0.80;;;;;;;29.21;35.83;99177.94;5107845;28;20043;-78
2022/07/03 09:49:52;;;;;;;1.48;0.60;;;;;;;29.38;36.12;99156.94;5096579;28;20074;-78
2022/07/03 09:52:37;;;;;;;0.57;0.57;;;;;;;29.33;33.38;99159.81;5105582;28;20044;-78
2022/07/03 09:55:14;;;;;;;0.57;0.57;;;;;;;29.32;32.21;99158.16;5108871;28;20050;-78
2022/07/03 09:57:43;;;;;;;0.52;0.52;;;;;;;28.80;35.85;99144.25;5109047;28;20148;-78
2022/07/03 10:00:13;;;;;;;1.73;0.90;;;;;;;29.03;36.38;99136.84;5108631;28;20044;-79
2022/07/03 10:02:58;;;;;;;1.77;0.55;;;;;;;28.98;36.96;99128.53;5088210;28;20105;-78
2022/07/03 10:05:26;;;;;;;1.33;0.73;;;;;;;29.51;37.80;99139.31;5105258;28;20049;-78
2022/07/03 10:07:55;;;;;;;0.82;0.60;;;;;;;29.28;34.52;99152.34;5108564;28;20410;-78
2022/07/03 10:10:23;;;;;;;3.40;0.93;;;;;;;29.39;34.80;99158.59;5107826;28;20117;-78
2022/07/03 10:12:51;;;;;;;0.55;0.50;;;;;;;29.54;34.66;99146.22;5106940;28;20047;-78
2022/07/03 10:15:19;;;;;;;0.50;0.50;;;;;;;29.21;36.04;99135.97;5108388;28;20308;-79
2022/07/03 10:17:49;;;;;;;1.05;0.60;;;;;;;29.19;34.82;99141.03;5107670;28;20044;-79
2022/07/03 10:20:26;;;;;;;0.93;0.60;;;;;;;29.49;34.64;99149.97;5104204;28;20083;-78
2022/07/03 10:22:54;;;;;;;1.95;0.60;;;;;;;29.70;35.87;99150.38;5099188;28;20338;-78
2022/07/03 10:25:21;;;;;;;1.38;0.80;;;;;;;29.46;34.55;99128.19;5110880;28;20056;-78
2022/07/03 10:27:48;;;;;;;0.73;0.70;;;;;;;30.02;33.03;99137.41;5112008;28;20056;-80
2022/07/03 10:30:16;;;;;;;3.53;0.55;;;;;;;29.88;34.43;99140.22;5112024;28;20138;-77
2022/07/03 10:32:45;;;;;;;0.50;0.50;;;;;;;29.95;33.80;99142.59;5097960;27;20075;-78
2022/07/03 10:35:13;;;;;;;0.60;0.57;;;;;;;29.92;33.75;99129.22;5098246;28;20052;-78
2022/07/03 10:37:53;;;;;;;0.63;0.60;;;;;;;29.93;34.08;99150.47;5111875;28;20529;-78
2022/07/03 10:46:11;;;;;;;3.22;0.73;;;;;;;29.95;35.59;99140.63;5112153;28;20058;-78
2022/07/03 10:48:58;;;;;;;2.83;0.57;;;;;;;30.27;32.99;99137.94;5108728;28;20767;-78
2022/07/03 10:51:25;;;;;;;3.35;0.45;;;;;;;30.08;33.69;99130.53;5109547;28;20043;-78
2022/07/03 10:54:13;;;;;;;3.40;0.75;;;;;;;30.23;32.57;99132.16;5110637;28;20048;-78
2022/07/03 10:57:13;;;;;;;0.90;0.45;;;;;;;29.87;32.52;99132.13;5111769;27;20101;-78
2022/07/03 11:00:00;;;;;;;1.02;0.50;;;;;;;30.52;32.48;99137.34;5111794;28;20044;-78
2022/07/03 11:02:30;;;;;;;5.05;0.70;;;;;;;30.42;31.46;99132.00;5110090;28;20047;-78
2022/07/03 11:05:17;;;;;;;0.20;0.20;;;;;;;30.66;32.31;99128.84;5110206;28;20048;-79
2022/07/03 11:08:04;;;;;;;2.97;0.70;;;;;;;30.44;32.52;99117.66;5091021;28;20059;-78
2022/07/03 11:10:34;;;;;;;1.85;0.50;;;;;;;30.36;32.44;99120.03;5109069;28;20486;-77
2022/07/03 11:13:03;;;;;;;1.80;0.50;;;;;;;30.46;31.29;99115.38;5109453;28;20048;-78
2022/07/03 11:15:31;;;;;;;0.93;0.60;;;;;;;30.49;32.14;99117.53;5111358;28;20147;-78
2022/07/03 11:18:28;;;;;;;1.35;0.50;;;;;;;30.28;32.99;99095.56;5105265;28;20139;-78
2022/07/03 11:21:32;;;;;;;1.73;0.60;;;;;;;30.45;31.85;99108.91;5105895;28;20799;-78
2022/07/03 11:24:15;;;;;;;2.70;0.80;;;;;;;30.75;33.35;99106.47;5110351;28;20078;-78
2022/07/03 11:26:43;;;;;;;3.20;0.57;;;;;;;30.85;31.50;99103.41;5109336;28;20048;-78
2022/07/03 11:29:28;;;;;;;0.50;0.50;;;;;;;31.33;32.07;99078.53;5109563;28;20051;-78
2022/07/03 11:31:55;;;;;;;2.65;0.60;;;;;;;31.28;31.19;99098.34;5097669;28;20059;-78
2022/07/03 11:34:22;;;;;;;0.57;0.50;;;;;;;31.01;30.82;99081.41;5109480;28;20409;-78
2022/07/03 11:36:48;;;;;;;0.50;0.50;;;;;;;31.35;30.76;99096.72;5110857;28;20043;-78
2022/07/03 11:39:20;;;;;;;0.32;0.32;;;;;;;31.01;30.61;99083.38;5111029;28;20092;-78
2022/07/03 11:41:48;;;;;;;0.93;0.70;;;;;;;31.05;31.29;99082.38;5107061;28;20051;-78
2022/07/03 11:44:20;;;;;;;0.50;0.50;;;;;;;31.47;32.07;99090.47;5108166;28;20490;-78
2022/07/03 11:46:50;;;;;;;0.50;0.40;;;;;;;31.04;30.62;99063.91;5092526;28;20133;-78
2022/07/03 11:49:17;;;;;;;;;;;;;;;31.05;30.66;99095.59;5090893;28;20052;-79
2022/07/03 11:51:54;;;;;;;2.22;0.73;;;;;;;30.88;31.70;99080.31;5090024;28;19935;-78
2022/07/03 11:54:21;;;;;;;1.38;0.80;;;;;;;31.05;30.46;99090.81;5089822;28;20058;-78